sensor_id;sensor_type;location;lat;lon;timestamp;P1;durP1;ratioP1;P2;durP2;ratioP2
16524;SDS011;8375;33.594;-117.718;2022-08-05T00:01:09;10.23;;;4.50;;
16524;SDS011;8375;33.594;-117.718;2022-08-05T00:03:39;7.57;;;4.80;;
16524;SDS011;8375;33.594;-117.718;2022-08-05T00:06:08;12.50;;;4.30;;
16524;SDS011;8375;33.594;-117.718;2022-08-05T00:08:38;9.32;;;4.60;;
16524;SDS011;8375;33.594;-117.718;2022-08-05T00:11:08;9.98;;;4.50;;
16524;SDS011;8375;33.594;-117.718;2022-08-05T00:13:38;10.20;;;4.72;;
16524;SDS011;8375;33.594;-117.718;2022-08-05T00:16:08;10.38;;;4.32;;
16524;SDS011;8375;33.594;-117.718;2022-08-05T00:18:38;9.60;;;4.65;;
16524;SDS011;8375;33.594;-117.718;2022-08-05T00:21:08;8.57;;;4.50;;
16524;SDS011;8375;33.594;-117.718;2022-08-05T00:23:38;9.45;;;4.88;;
16524;SDS011;8375;33.594;-117.718;2022-08-05T00:26:08;11.57;;;4.95;;
16524;SDS011;8375;33.594;-117.718;2022-08-05T00:28:36;9.35;;;4.25;;
16524;SDS011;8375;33.594;-117.718;2022-08-05T00:31:05;10.02;;;4.63;;
16524;SDS011;8375;33.594;-117.718;2022-08-05T00:33:34;8.23;;;4.63;;
16524;SDS011;8375;33.594;-117.718;2022-08-05T00:36:05;11.93;;;4.63;;
16524;SDS011;8375;33.594;-117.718;2022-08-05T00:38:34;9.90;;;4.40;;
16524;SDS011;8375;33.594;-117.718;2022-08-05T00:41:05;9.43;;;4.30;;
16524;SDS011;8375;33.594;-117.718;2022-08-05T00:43:35;8.95;;;4.93;;
16524;SDS011;8375;33.594;-117.718;2022-08-05T00:46:03;9.80;;;5.13;;
16524;SDS011;8375;33.594;-117.718;2022-08-05T00:48:32;9.77;;;4.57;;
16524;SDS011;8375;33.594;-117.718;2022-08-05T00:51:01;11.95;;;3.95;;
16524;SDS011;8375;33.594;-117.718;2022-08-05T00:53:29;7.97;;;4.15;;
16524;SDS011;8375;33.594;-117.718;2022-08-05T00:55:58;6.63;;;4.35;;
16524;SDS011;8375;33.594;-117.718;2022-08-05T00:58:32;8.13;;;4.15;;
16524;SDS011;8375;33.594;-117.718;2022-08-05T01:01:01;11.20;;;4.78;;
16524;SDS011;8375;33.594;-117.718;2022-08-05T01:03:30;10.63;;;5.00;;
16524;SDS011;8375;33.594;-117.718;2022-08-05T01:05:58;9.18;;;5.00;;
16524;SDS011;8375;33.594;-117.718;2022-08-05T01:08:27;11.02;;;4.82;;
16524;SDS011;8375;33.594;-117.718;2022-08-05T01:10:58;7.63;;;4.80;;
16524;SDS011;8375;33.594;-117.718;2022-08-05T01:13:32;9.38;;;4.53;;
16524;SDS011;8375;33.594;-117.718;2022-08-05T01:16:10;11.50;;;5.00;;
16524;SDS011;8375;33.594;-117.718;2022-08-05T01:18:45;10.50;;;4.72;;
16524;SDS011;8375;33.594;-117.718;2022-08-05T01:21:22;8.90;;;5.03;;
16524;SDS011;8375;33.594;-117.718;2022-08-05T01:24:09;11.98;;;5.40;;
16524;SDS011;8375;33.594;-117.718;2022-08-05T01:26:56;10.50;;;5.05;;
16524;SDS011;8375;33.594;-117.718;2022-08-05T01:29:33;9.65;;;4.97;;
16524;SDS011;8375;33.594;-117.718;2022-08-05T01:32:08;7.95;;;5.10;;
16524;SDS011;8375;33.594;-117.718;2022-08-05T01:34:39;11.77;;;5.50;;
16524;SDS011;8375;33.594;-117.718;2022-08-05T01:37:16;11.00;;;4.90;;
16524;SDS011;8375;33.594;-117.718;2022-08-05T01:39:48;10.95;;;5.03;;
16524;SDS011;8375;33.594;-117.718;2022-08-05T01:42:19;11.07;;;4.65;;
16524;SDS011;8375;33.594;-117.718;2022-08-05T01:44:51;11.07;;;5.30;;
16524;SDS011;8375;33.594;-117.718;2022-08-05T01:47:23;8.20;;;5.47;;
16524;SDS011;8375;33.594;-117.718;2022-08-05T01:49:53;10.65;;;5.35;;
16524;SDS011;8375;33.594;-117.718;2022-08-05T01:52:24;13.07;;;5.75;;
16524;SDS011;8375;33.594;-117.718;2022-08-05T01:54:55;9.07;;;5.45;;
16524;SDS011;8375;33.594;-117.718;2022-08-05T01:57:30;9.75;;;5.05;;
16524;SDS011;8375;33.594;-117.718;2022-08-05T02:00:03;10.57;;;5.90;;
16524;SDS011;8375;33.594;-117.718;2022-08-05T02:02:35;12.90;;;5.68;;
16524;SDS011;8375;33.594;-117.718;2022-08-05T02:05:09;13.48;;;5.55;;
16524;SDS011;8375;33.594;-117.718;2022-08-05T02:07:40;11.88;;;5.45;;
16524;SDS011;8375;33.594;-117.718;2022-08-05T02:10:09;13.60;;;5.55;;
16524;SDS011;8375;33.594;-117.718;2022-08-05T02:12:41;11.13;;;5.55;;
16524;SDS011;8375;33.594;-117.718;2022-08-05T02:15:16;12.55;;;5.70;;
16524;SDS011;8375;33.594;-117.718;2022-08-05T02:17:50;12.88;;;5.43;;
16524;SDS011;8375;33.594;-117.718;2022-08-05T02:20:25;8.70;;;5.43;;
16524;SDS011;8375;33.594;-117.718;2022-08-05T02:22:58;14.23;;;6.20;;
16524;SDS011;8375;33.594;-117.718;2022-08-05T02:25:33;11.50;;;5.55;;
16524;SDS011;8375;33.594;-117.718;2022-08-05T02:31:16;9.10;;;5.50;;
16524;SDS011;8375;33.594;-117.718;2022-08-05T02:33:50;11.40;;;5.65;;
16524;SDS011;8375;33.594;-117.718;2022-08-05T02:36:22;11.05;;;5.93;;
16524;SDS011;8375;33.594;-117.718;2022-08-05T02:42:28;8.80;;;5.68;;
16524;SDS011;8375;33.594;-117.718;2022-08-05T02:45:01;9.80;;;5.47;;
16524;SDS011;8375;33.594;-117.718;2022-08-05T02:47:34;10.05;;;5.65;;
16524;SDS011;8375;33.594;-117.718;2022-08-05T02:50:04;9.77;;;5.55;;
16524;SDS011;8375;33.594;-117.718;2022-08-05T02:52:34;8.07;;;5.50;;
16524;SDS011;8375;33.594;-117.718;2022-08-05T02:55:05;11.77;;;6.10;;
16524;SDS011;8375;33.594;-117.718;2022-08-05T02:57:38;11.32;;;6.13;;
16524;SDS011;8375;33.594;-117.718;2022-08-05T03:00:11;11.18;;;6.07;;
16524;SDS011;8375;33.594;-117.718;2022-08-05T03:02:42;8.07;;;5.63;;
16524;SDS011;8375;33.594;-117.718;2022-08-05T03:05:14;13.35;;;6.47;;
16524;SDS011;8375;33.594;-117.718;2022-08-05T03:07:44;9.43;;;5.75;;
16524;SDS011;8375;33.594;-117.718;2022-08-05T03:10:15;10.38;;;5.85;;
16524;SDS011;8375;33.594;-117.718;2022-08-05T03:12:44;10.55;;;6.38;;
16524;SDS011;8375;33.594;-117.718;2022-08-05T03:15:15;11.55;;;6.00;;
16524;SDS011;8375;33.594;-117.718;2022-08-05T03:17:46;9.65;;;6.28;;
16524;SDS011;8375;33.594;-117.718;2022-08-05T03:20:15;11.82;;;7.18;;
16524;SDS011;8375;33.594;-117.718;2022-08-05T03:22:44;9.65;;;6.88;;
16524;SDS011;8375;33.594;-117.718;2022-08-05T03:25:13;9.93;;;5.97;;
16524;SDS011;8375;33.594;-117.718;2022-08-05T03:27:45;10.85;;;6.13;;
16524;SDS011;8375;33.594;-117.718;2022-08-05T03:30:17;9.88;;;6.28;;
16524;SDS011;8375;33.594;-117.718;2022-08-05T03:32:50;12.57;;;6.68;;
16524;SDS011;8375;33.594;-117.718;2022-08-05T03:35:41;9.25;;;6.53;;
16524;SDS011;8375;33.594;-117.718;2022-08-05T03:38:12;10.57;;;6.80;;
16524;SDS011;8375;33.594;-117.718;2022-08-05T03:40:41;12.98;;;7.03;;
16524;SDS011;8375;33.594;-117.718;2022-08-05T03:43:10;11.27;;;6.32;;
16524;SDS011;8375;33.594;-117.718;2022-08-05T03:45:39;14.13;;;6.38;;
16524;SDS011;8375;33.594;-117.718;2022-08-05T03:48:09;9.73;;;6.40;;
16524;SDS011;8375;33.594;-117.718;2022-08-05T03:50:40;12.77;;;6.32;;
16524;SDS011;8375;33.594;-117.718;2022-08-05T03:53:12;10.77;;;7.15;;
16524;SDS011;8375;33.594;-117.718;2022-08-05T03:55:51;9.93;;;6.45;;
16524;SDS011;8375;33.594;-117.718;2022-08-05T03:58:25;9.77;;;6.82;;
16524;SDS011;8375;33.594;-117.718;2022-08-05T04:00:58;15.82;;;6.95;;
16524;SDS011;8375;33.594;-117.718;2022-08-05T04:03:30;13.77;;;6.65;;
16524;SDS011;8375;33.594;-117.718;2022-08-05T04:06:03;14.38;;;6.97;;
16524;SDS011;8375;33.594;-117.718;2022-08-05T04:08:33;9.68;;;6.32;;
16524;SDS011;8375;33.594;-117.718;2022-08-05T04:11:03;10.68;;;6.22;;
16524;SDS011;8375;33.594;-117.718;2022-08-05T04:13:33;13.15;;;6.57;;
16524;SDS011;8375;33.594;-117.718;2022-08-05T04:16:05;11.30;;;6.32;;
16524;SDS011;8375;33.594;-117.718;2022-08-05T04:18:37;12.60;;;6.30;;
16524;SDS011;8375;33.594;-117.718;2022-08-05T04:21:06;9.80;;;6.22;;
16524;SDS011;8375;33.594;-117.718;2022-08-05T04:23:35;15.02;;;7.00;;
16524;SDS011;8375;33.594;-117.718;2022-08-05T04:26:04;13.82;;;6.43;;
16524;SDS011;8375;33.594;-117.718;2022-08-05T04:28:33;12.75;;;6.63;;
16524;SDS011;8375;33.594;-117.718;2022-08-05T04:31:02;10.95;;;6.50;;
16524;SDS011;8375;33.594;-117.718;2022-08-05T04:33:30;8.95;;;6.07;;
16524;SDS011;8375;33.594;-117.718;2022-08-05T04:36:02;12.50;;;6.80;;
16524;SDS011;8375;33.594;-117.718;2022-08-05T04:38:31;9.88;;;6.32;;
16524;SDS011;8375;33.594;-117.718;2022-08-05T04:40:59;10.40;;;6.50;;
16524;SDS011;8375;33.594;-117.718;2022-08-05T04:43:28;9.98;;;6.15;;
16524;SDS011;8375;33.594;-117.718;2022-08-05T04:45:56;9.20;;;6.50;;
16524;SDS011;8375;33.594;-117.718;2022-08-05T04:48:25;9.60;;;6.05;;
16524;SDS011;8375;33.594;-117.718;2022-08-05T04:50:53;11.27;;;6.38;;
16524;SDS011;8375;33.594;-117.718;2022-08-05T04:53:25;12.27;;;6.90;;
16524;SDS011;8375;33.594;-117.718;2022-08-05T04:55:53;15.50;;;7.10;;
16524;SDS011;8375;33.594;-117.718;2022-08-05T04:58:23;9.15;;;6.47;;
16524;SDS011;8375;33.594;-117.718;2022-08-05T05:00:51;10.63;;;6.82;;
16524;SDS011;8375;33.594;-117.718;2022-08-05T05:03:21;10.85;;;6.60;;
16524;SDS011;8375;33.594;-117.718;2022-08-05T05:05:50;9.95;;;6.78;;
16524;SDS011;8375;33.594;-117.718;2022-08-05T05:08:20;12.68;;;7.25;;
16524;SDS011;8375;33.594;-117.718;2022-08-05T05:10:50;11.13;;;7.00;;
16524;SDS011;8375;33.594;-117.718;2022-08-05T05:13:23;13.50;;;8.10;;
16524;SDS011;8375;33.594;-117.718;2022-08-05T05:15:52;11.10;;;6.80;;
16524;SDS011;8375;33.594;-117.718;2022-08-05T05:18:21;12.85;;;7.50;;
16524;SDS011;8375;33.594;-117.718;2022-08-05T05:20:50;13.82;;;7.57;;
16524;SDS011;8375;33.594;-117.718;2022-08-05T05:23:18;12.52;;;6.80;;
16524;SDS011;8375;33.594;-117.718;2022-08-05T05:25:57;10.18;;;6.47;;
16524;SDS011;8375;33.594;-117.718;2022-08-05T05:28:35;12.75;;;7.22;;
16524;SDS011;8375;33.594;-117.718;2022-08-05T05:31:04;14.55;;;7.28;;
16524;SDS011;8375;33.594;-117.718;2022-08-05T05:33:34;14.40;;;7.50;;
16524;SDS011;8375;33.594;-117.718;2022-08-05T05:36:04;9.25;;;6.90;;
16524;SDS011;8375;33.594;-117.718;2022-08-05T05:38:36;18.08;;;8.32;;
16524;SDS011;8375;33.594;-117.718;2022-08-05T05:41:06;10.55;;;7.18;;
16524;SDS011;8375;33.594;-117.718;2022-08-05T05:43:39;12.25;;;6.75;;
16524;SDS011;8375;33.594;-117.718;2022-08-05T05:46:15;13.85;;;7.43;;
16524;SDS011;8375;33.594;-117.718;2022-08-05T05:48:45;9.88;;;6.55;;
16524;SDS011;8375;33.594;-117.718;2022-08-05T05:51:25;10.43;;;6.53;;
16524;SDS011;8375;33.594;-117.718;2022-08-05T05:53:54;11.98;;;6.70;;
16524;SDS011;8375;33.594;-117.718;2022-08-05T05:56:25;10.55;;;6.60;;
16524;SDS011;8375;33.594;-117.718;2022-08-05T05:58:57;15.43;;;7.53;;
16524;SDS011;8375;33.594;-117.718;2022-08-05T06:01:25;10.95;;;6.65;;
16524;SDS011;8375;33.594;-117.718;2022-08-05T06:03:56;17.08;;;7.32;;
16524;SDS011;8375;33.594;-117.718;2022-08-05T06:06:25;15.55;;;7.80;;
16524;SDS011;8375;33.594;-117.718;2022-08-05T06:09:01;13.98;;;7.15;;
16524;SDS011;8375;33.594;-117.718;2022-08-05T06:11:36;11.88;;;6.93;;
16524;SDS011;8375;33.594;-117.718;2022-08-05T06:14:06;10.02;;;7.15;;
16524;SDS011;8375;33.594;-117.718;2022-08-05T06:16:35;13.93;;;6.43;;
16524;SDS011;8375;33.594;-117.718;2022-08-05T06:19:10;14.73;;;7.00;;
16524;SDS011;8375;33.594;-117.718;2022-08-05T06:21:46;11.57;;;7.15;;
16524;SDS011;8375;33.594;-117.718;2022-08-05T06:24:14;10.63;;;6.65;;
16524;SDS011;8375;33.594;-117.718;2022-08-05T06:26:48;10.80;;;6.65;;
16524;SDS011;8375;33.594;-117.718;2022-08-05T06:29:17;14.90;;;6.68;;
16524;SDS011;8375;33.594;-117.718;2022-08-05T06:31:45;11.48;;;7.25;;
16524;SDS011;8375;33.594;-117.718;2022-08-05T06:34:14;14.73;;;7.05;;
16524;SDS011;8375;33.594;-117.718;2022-08-05T06:36:43;12.65;;;7.38;;
16524;SDS011;8375;33.594;-117.718;2022-08-05T06:39:11;15.93;;;7.13;;
16524;SDS011;8375;33.594;-117.718;2022-08-05T06:41:42;11.45;;;7.57;;
16524;SDS011;8375;33.594;-117.718;2022-08-05T06:44:14;19.08;;;7.97;;
16524;SDS011;8375;33.594;-117.718;2022-08-05T06:46:44;13.15;;;7.47;;
16524;SDS011;8375;33.594;-117.718;2022-08-05T06:49:12;22.08;;;8.52;;
16524;SDS011;8375;33.594;-117.718;2022-08-05T06:51:41;13.55;;;7.68;;
16524;SDS011;8375;33.594;-117.718;2022-08-05T06:54:09;15.10;;;7.75;;
16524;SDS011;8375;33.594;-117.718;2022-08-05T06:56:38;14.52;;;8.20;;
16524;SDS011;8375;33.594;-117.718;2022-08-05T06:59:06;14.30;;;7.70;;
16524;SDS011;8375;33.594;-117.718;2022-08-05T07:01:40;13.88;;;7.15;;
16524;SDS011;8375;33.594;-117.718;2022-08-05T07:04:09;11.60;;;7.35;;
16524;SDS011;8375;33.594;-117.718;2022-08-05T07:06:38;11.20;;;7.43;;
16524;SDS011;8375;33.594;-117.718;2022-08-05T07:09:06;16.95;;;7.70;;
16524;SDS011;8375;33.594;-117.718;2022-08-05T07:11:35;13.13;;;7.72;;
16524;SDS011;8375;33.594;-117.718;2022-08-05T07:14:04;13.75;;;7.75;;
16524;SDS011;8375;33.594;-117.718;2022-08-05T07:16:51;12.35;;;7.57;;
16524;SDS011;8375;33.594;-117.718;2022-08-05T07:19:24;13.85;;;7.18;;
16524;SDS011;8375;33.594;-117.718;2022-08-05T07:21:54;12.45;;;6.82;;
16524;SDS011;8375;33.594;-117.718;2022-08-05T07:24:23;9.93;;;7.25;;
16524;SDS011;8375;33.594;-117.718;2022-08-05T07:26:52;13.75;;;6.95;;
16524;SDS011;8375;33.594;-117.718;2022-08-05T07:29:20;12.82;;;7.72;;
16524;SDS011;8375;33.594;-117.718;2022-08-05T07:31:51;11.90;;;7.38;;
16524;SDS011;8375;33.594;-117.718;2022-08-05T07:34:20;12.77;;;7.80;;
16524;SDS011;8375;33.594;-117.718;2022-08-05T07:36:49;11.15;;;7.20;;
16524;SDS011;8375;33.594;-117.718;2022-08-05T07:39:18;10.25;;;7.25;;
16524;SDS011;8375;33.594;-117.718;2022-08-05T07:41:47;13.25;;;7.47;;
16524;SDS011;8375;33.594;-117.718;2022-08-05T07:44:16;14.55;;;8.00;;
16524;SDS011;8375;33.594;-117.718;2022-08-05T07:46:44;15.05;;;7.68;;
16524;SDS011;8375;33.594;-117.718;2022-08-05T07:49:15;14.13;;;7.10;;
16524;SDS011;8375;33.594;-117.718;2022-08-05T07:51:45;13.20;;;7.30;;
16524;SDS011;8375;33.594;-117.718;2022-08-05T07:54:13;13.70;;;8.00;;
16524;SDS011;8375;33.594;-117.718;2022-08-05T07:56:42;15.50;;;8.40;;
16524;SDS011;8375;33.594;-117.718;2022-08-05T07:59:11;14.43;;;7.90;;
16524;SDS011;8375;33.594;-117.718;2022-08-05T08:01:39;13.57;;;7.45;;
16524;SDS011;8375;33.594;-117.718;2022-08-05T08:04:08;17.75;;;8.90;;
16524;SDS011;8375;33.594;-117.718;2022-08-05T08:06:38;11.05;;;6.88;;
16524;SDS011;8375;33.594;-117.718;2022-08-05T08:09:06;14.23;;;7.82;;
16524;SDS011;8375;33.594;-117.718;2022-08-05T08:11:35;17.85;;;8.07;;
16524;SDS011;8375;33.594;-117.718;2022-08-05T08:14:04;16.65;;;7.75;;
16524;SDS011;8375;33.594;-117.718;2022-08-05T08:16:33;16.67;;;7.72;;
16524;SDS011;8375;33.594;-117.718;2022-08-05T08:19:01;14.02;;;8.40;;
16524;SDS011;8375;33.594;-117.718;2022-08-05T08:21:30;12.02;;;7.63;;
16524;SDS011;8375;33.594;-117.718;2022-08-05T08:24:00;11.90;;;7.50;;
16524;SDS011;8375;33.594;-117.718;2022-08-05T08:26:30;13.98;;;7.88;;
16524;SDS011;8375;33.594;-117.718;2022-08-05T08:28:59;14.95;;;7.68;;
16524;SDS011;8375;33.594;-117.718;2022-08-05T08:31:27;16.10;;;7.47;;
16524;SDS011;8375;33.594;-117.718;2022-08-05T08:33:56;15.48;;;8.80;;
16524;SDS011;8375;33.594;-117.718;2022-08-05T08:36:24;18.58;;;8.63;;
16524;SDS011;8375;33.594;-117.718;2022-08-05T08:38:53;14.73;;;7.75;;
16524;SDS011;8375;33.594;-117.718;2022-08-05T08:41:24;13.15;;;7.72;;
16524;SDS011;8375;33.594;-117.718;2022-08-05T08:43:53;12.80;;;7.38;;
16524;SDS011;8375;33.594;-117.718;2022-08-05T08:46:23;17.63;;;8.50;;
16524;SDS011;8375;33.594;-117.718;2022-08-05T08:48:54;15.25;;;7.95;;
16524;SDS011;8375;33.594;-117.718;2022-08-05T08:51:23;21.17;;;8.20;;
16524;SDS011;8375;33.594;-117.718;2022-08-05T08:53:58;16.75;;;8.38;;
16524;SDS011;8375;33.594;-117.718;2022-08-05T08:56:28;17.85;;;9.07;;
16524;SDS011;8375;33.594;-117.718;2022-08-05T08:58:58;15.35;;;8.38;;
16524;SDS011;8375;33.594;-117.718;2022-08-05T09:01:27;17.33;;;8.52;;
16524;SDS011;8375;33.594;-117.718;2022-08-05T09:03:56;18.15;;;8.52;;
16524;SDS011;8375;33.594;-117.718;2022-08-05T09:06:26;13.23;;;8.23;;
16524;SDS011;8375;33.594;-117.718;2022-08-05T09:08:55;14.00;;;7.50;;
16524;SDS011;8375;33.594;-117.718;2022-08-05T09:11:24;18.33;;;8.82;;
16524;SDS011;8375;33.594;-117.718;2022-08-05T09:13:55;13.77;;;8.25;;
16524;SDS011;8375;33.594;-117.718;2022-08-05T09:16:24;16.38;;;8.38;;
16524;SDS011;8375;33.594;-117.718;2022-08-05T09:18:53;17.33;;;8.30;;
16524;SDS011;8375;33.594;-117.718;2022-08-05T09:21:21;14.57;;;8.50;;
16524;SDS011;8375;33.594;-117.718;2022-08-05T09:24:01;15.57;;;8.77;;
16524;SDS011;8375;33.594;-117.718;2022-08-05T09:26:30;15.70;;;9.48;;
16524;SDS011;8375;33.594;-117.718;2022-08-05T09:29:01;12.18;;;8.27;;
16524;SDS011;8375;33.594;-117.718;2022-08-05T09:31:32;17.83;;;8.25;;
16524;SDS011;8375;33.594;-117.718;2022-08-05T09:34:02;13.98;;;8.40;;
16524;SDS011;8375;33.594;-117.718;2022-08-05T09:36:38;17.42;;;9.25;;
16524;SDS011;8375;33.594;-117.718;2022-08-05T09:39:09;15.15;;;8.65;;
16524;SDS011;8375;33.594;-117.718;2022-08-05T09:44:37;17.30;;;8.82;;
16524;SDS011;8375;33.594;-117.718;2022-08-05T09:47:07;18.52;;;8.75;;
16524;SDS011;8375;33.594;-117.718;2022-08-05T09:49:40;18.02;;;9.60;;
16524;SDS011;8375;33.594;-117.718;2022-08-05T09:52:21;18.33;;;9.02;;
16524;SDS011;8375;33.594;-117.718;2022-08-05T09:54:54;17.83;;;8.48;;
16524;SDS011;8375;33.594;-117.718;2022-08-05T09:57:27;16.85;;;9.38;;
16524;SDS011;8375;33.594;-117.718;2022-08-05T10:00:04;16.90;;;9.93;;
16524;SDS011;8375;33.594;-117.718;2022-08-05T10:02:36;19.30;;;9.60;;
16524;SDS011;8375;33.594;-117.718;2022-08-05T10:05:07;20.60;;;9.30;;
16524;SDS011;8375;33.594;-117.718;2022-08-05T10:07:44;17.33;;;9.70;;
16524;SDS011;8375;33.594;-117.718;2022-08-05T10:10:17;18.80;;;10.07;;
16524;SDS011;8375;33.594;-117.718;2022-08-05T10:12:51;20.85;;;10.43;;
16524;SDS011;8375;33.594;-117.718;2022-08-05T10:15:23;22.55;;;10.20;;
16524;SDS011;8375;33.594;-117.718;2022-08-05T10:18:04;20.15;;;10.02;;
16524;SDS011;8375;33.594;-117.718;2022-08-05T10:20:37;15.55;;;10.38;;
16524;SDS011;8375;33.594;-117.718;2022-08-05T10:23:09;21.77;;;10.15;;
16524;SDS011;8375;33.594;-117.718;2022-08-05T10:25:39;19.63;;;10.23;;
16524;SDS011;8375;33.594;-117.718;2022-08-05T10:28:08;21.40;;;10.32;;
16524;SDS011;8375;33.594;-117.718;2022-08-05T10:30:38;17.67;;;10.63;;
16524;SDS011;8375;33.594;-117.718;2022-08-05T10:33:07;18.27;;;10.60;;
16524;SDS011;8375;33.594;-117.718;2022-08-05T10:35:36;19.15;;;9.82;;
16524;SDS011;8375;33.594;-117.718;2022-08-05T10:38:05;14.98;;;9.00;;
16524;SDS011;8375;33.594;-117.718;2022-08-05T10:40:35;16.37;;;9.47;;
16524;SDS011;8375;33.594;-117.718;2022-08-05T10:43:14;14.82;;;9.25;;
16524;SDS011;8375;33.594;-117.718;2022-08-05T10:45:59;19.73;;;10.02;;
16524;SDS011;8375;33.594;-117.718;2022-08-05T10:48:32;18.42;;;9.18;;
16524;SDS011;8375;33.594;-117.718;2022-08-05T10:51:04;15.63;;;8.85;;
16524;SDS011;8375;33.594;-117.718;2022-08-05T10:53:36;16.85;;;9.43;;
16524;SDS011;8375;33.594;-117.718;2022-08-05T10:56:10;17.42;;;9.82;;
16524;SDS011;8375;33.594;-117.718;2022-08-05T10:58:48;16.73;;;9.02;;
16524;SDS011;8375;33.594;-117.718;2022-08-05T11:01:30;17.17;;;9.07;;
16524;SDS011;8375;33.594;-117.718;2022-08-05T11:04:07;19.65;;;9.70;;
16524;SDS011;8375;33.594;-117.718;2022-08-05T11:09:37;18.90;;;9.60;;
16524;SDS011;8375;33.594;-117.718;2022-08-05T11:15:15;16.77;;;8.87;;
16524;SDS011;8375;33.594;-117.718;2022-08-05T11:17:46;15.43;;;8.55;;
16524;SDS011;8375;33.594;-117.718;2022-08-05T11:20:33;17.75;;;8.70;;
16524;SDS011;8375;33.594;-117.718;2022-08-05T11:26:04;18.37;;;9.17;;
16524;SDS011;8375;33.594;-117.718;2022-08-05T11:28:38;19.02;;;9.05;;
16524;SDS011;8375;33.594;-117.718;2022-08-05T11:31:17;14.00;;;8.52;;
16524;SDS011;8375;33.594;-117.718;2022-08-05T11:34:03;19.57;;;9.70;;
16524;SDS011;8375;33.594;-117.718;2022-08-05T11:36:43;20.05;;;9.55;;
16524;SDS011;8375;33.594;-117.718;2022-08-05T11:39:14;20.83;;;9.53;;
16524;SDS011;8375;33.594;-117.718;2022-08-05T11:41:50;18.77;;;9.30;;
16524;SDS011;8375;33.594;-117.718;2022-08-05T11:44:19;19.17;;;9.60;;
16524;SDS011;8375;33.594;-117.718;2022-08-05T11:46:48;17.95;;;9.23;;
16524;SDS011;8375;33.594;-117.718;2022-08-05T11:49:19;18.83;;;9.00;;
16524;SDS011;8375;33.594;-117.718;2022-08-05T11:51:49;21.43;;;9.77;;
16524;SDS011;8375;33.594;-117.718;2022-08-05T11:54:22;21.27;;;9.83;;
16524;SDS011;8375;33.594;-117.718;2022-08-05T11:56:52;11.63;;;8.67;;
16524;SDS011;8375;33.594;-117.718;2022-08-05T11:59:21;19.42;;;9.70;;
16524;SDS011;8375;33.594;-117.718;2022-08-05T12:01:52;14.75;;;9.52;;
16524;SDS011;8375;33.594;-117.718;2022-08-05T12:04:24;20.88;;;9.50;;
16524;SDS011;8375;33.594;-117.718;2022-08-05T12:06:53;18.47;;;9.23;;
16524;SDS011;8375;33.594;-117.718;2022-08-05T12:09:25;21.67;;;10.10;;
16524;SDS011;8375;33.594;-117.718;2022-08-05T12:11:56;17.07;;;9.37;;
16524;SDS011;8375;33.594;-117.718;2022-08-05T12:14:25;17.17;;;9.43;;
16524;SDS011;8375;33.594;-117.718;2022-08-05T12:17:05;17.93;;;10.17;;
16524;SDS011;8375;33.594;-117.718;2022-08-05T12:19:42;14.93;;;9.37;;
16524;SDS011;8375;33.594;-117.718;2022-08-05T12:22:13;16.30;;;9.10;;
16524;SDS011;8375;33.594;-117.718;2022-08-05T12:24:42;21.57;;;10.57;;
16524;SDS011;8375;33.594;-117.718;2022-08-05T12:27:18;37.07;;;13.47;;
16524;SDS011;8375;33.594;-117.718;2022-08-05T12:29:57;49.70;;;15.60;;
16524;SDS011;8375;33.594;-117.718;2022-08-05T12:32:27;47.00;;;15.93;;
16524;SDS011;8375;33.594;-117.718;2022-08-05T12:34:59;31.05;;;12.68;;
16524;SDS011;8375;33.594;-117.718;2022-08-05T12:37:29;18.60;;;10.20;;
16524;SDS011;8375;33.594;-117.718;2022-08-05T12:39:58;21.17;;;10.97;;
16524;SDS011;8375;33.594;-117.718;2022-08-05T12:42:28;18.00;;;10.03;;
16524;SDS011;8375;33.594;-117.718;2022-08-05T12:45:06;20.20;;;10.97;;
16524;SDS011;8375;33.594;-117.718;2022-08-05T12:47:36;17.70;;;10.37;;
16524;SDS011;8375;33.594;-117.718;2022-08-05T12:50:13;16.07;;;9.57;;
16524;SDS011;8375;33.594;-117.718;2022-08-05T12:52:53;20.42;;;10.32;;
16524;SDS011;8375;33.594;-117.718;2022-08-05T12:55:24;18.17;;;9.68;;
16524;SDS011;8375;33.594;-117.718;2022-08-05T12:57:54;18.43;;;9.83;;
16524;SDS011;8375;33.594;-117.718;2022-08-05T13:00:24;16.80;;;9.70;;
16524;SDS011;8375;33.594;-117.718;2022-08-05T13:02:54;17.83;;;9.60;;
16524;SDS011;8375;33.594;-117.718;2022-08-05T13:05:24;18.90;;;10.10;;
16524;SDS011;8375;33.594;-117.718;2022-08-05T13:07:56;16.20;;;9.37;;
16524;SDS011;8375;33.594;-117.718;2022-08-05T13:10:24;16.75;;;9.57;;
16524;SDS011;8375;33.594;-117.718;2022-08-05T13:12:54;18.63;;;9.70;;
16524;SDS011;8375;33.594;-117.718;2022-08-05T13:15:27;18.87;;;10.03;;
16524;SDS011;8375;33.594;-117.718;2022-08-05T13:17:57;21.20;;;10.80;;
16524;SDS011;8375;33.594;-117.718;2022-08-05T13:20:33;21.93;;;10.70;;
16524;SDS011;8375;33.594;-117.718;2022-08-05T13:23:02;21.80;;;10.27;;
16524;SDS011;8375;33.594;-117.718;2022-08-05T13:25:31;17.90;;;9.67;;
16524;SDS011;8375;33.594;-117.718;2022-08-05T13:28:00;16.03;;;9.90;;
16524;SDS011;8375;33.594;-117.718;2022-08-05T13:30:29;19.47;;;10.50;;
16524;SDS011;8375;33.594;-117.718;2022-08-05T13:32:58;19.90;;;9.85;;
16524;SDS011;8375;33.594;-117.718;2022-08-05T13:35:26;23.40;;;9.70;;
16524;SDS011;8375;33.594;-117.718;2022-08-05T13:37:57;17.90;;;9.80;;
16524;SDS011;8375;33.594;-117.718;2022-08-05T13:40:25;19.50;;;9.67;;
16524;SDS011;8375;33.594;-117.718;2022-08-05T13:42:54;15.40;;;8.95;;
16524;SDS011;8375;33.594;-117.718;2022-08-05T13:45:23;17.70;;;8.40;;
16524;SDS011;8375;33.594;-117.718;2022-08-05T13:47:51;16.27;;;8.45;;
16524;SDS011;8375;33.594;-117.718;2022-08-05T13:50:20;15.52;;;9.18;;
16524;SDS011;8375;33.594;-117.718;2022-08-05T13:52:48;13.63;;;8.73;;
16524;SDS011;8375;33.594;-117.718;2022-08-05T13:55:19;18.40;;;8.63;;
16524;SDS011;8375;33.594;-117.718;2022-08-05T13:57:47;16.17;;;9.88;;
16524;SDS011;8375;33.594;-117.718;2022-08-05T14:00:16;13.67;;;8.67;;
16524;SDS011;8375;33.594;-117.718;2022-08-05T14:02:45;11.88;;;8.43;;
16524;SDS011;8375;33.594;-117.718;2022-08-05T14:05:13;17.53;;;9.03;;
16524;SDS011;8375;33.594;-117.718;2022-08-05T14:07:41;14.68;;;8.95;;
16524;SDS011;8375;33.594;-117.718;2022-08-05T14:10:11;15.55;;;8.95;;
16524;SDS011;8375;33.594;-117.718;2022-08-05T14:12:43;15.77;;;8.20;;
16524;SDS011;8375;33.594;-117.718;2022-08-05T14:15:12;21.98;;;8.88;;
16524;SDS011;8375;33.594;-117.718;2022-08-05T14:17:41;19.25;;;8.52;;
16524;SDS011;8375;33.594;-117.718;2022-08-05T14:20:10;17.45;;;8.52;;
16524;SDS011;8375;33.594;-117.718;2022-08-05T14:22:39;15.77;;;8.77;;
16524;SDS011;8375;33.594;-117.718;2022-08-05T14:25:08;13.02;;;8.32;;
16524;SDS011;8375;33.594;-117.718;2022-08-05T14:27:39;16.40;;;8.88;;
16524;SDS011;8375;33.594;-117.718;2022-08-05T14:30:09;16.88;;;8.38;;
16524;SDS011;8375;33.594;-117.718;2022-08-05T14:32:38;13.75;;;8.80;;
16524;SDS011;8375;33.594;-117.718;2022-08-05T14:35:07;15.18;;;9.18;;
16524;SDS011;8375;33.594;-117.718;2022-08-05T14:37:37;19.87;;;9.93;;
16524;SDS011;8375;33.594;-117.718;2022-08-05T14:40:06;24.33;;;10.67;;
16524;SDS011;8375;33.594;-117.718;2022-08-05T14:42:35;15.85;;;9.20;;
16524;SDS011;8375;33.594;-117.718;2022-08-05T14:45:06;14.43;;;9.43;;
16524;SDS011;8375;33.594;-117.718;2022-08-05T14:47:37;20.98;;;9.35;;
16524;SDS011;8375;33.594;-117.718;2022-08-05T14:50:05;18.75;;;9.35;;